sensor_id;sensor_type;location;lat;lon;timestamp;P1;durP1;ratioP1;P2;durP2;ratioP2
20245;SDS011;10281;54.406;18.556;2023-07-24T00:01:45;8.13;;;6.43;;
20245;SDS011;10281;54.406;18.556;2023-07-24T00:04:11;8.23;;;6.27;;
20245;SDS011;10281;54.406;18.556;2023-07-24T00:06:38;10.47;;;6.87;;
20245;SDS011;10281;54.406;18.556;2023-07-24T00:09:04;8.80;;;6.97;;
20245;SDS011;10281;54.406;18.556;2023-07-24T00:11:31;9.03;;;7.20;;
20245;SDS011;10281;54.406;18.556;2023-07-24T00:13:58;10.03;;;7.20;;
20245;SDS011;10281;54.406;18.556;2023-07-24T00:16:24;9.27;;;6.83;;
20245;SDS011;10281;54.406;18.556;2023-07-24T00:18:51;8.23;;;6.73;;
20245;SDS011;10281;54.406;18.556;2023-07-24T00:21:17;7.70;;;6.43;;
20245;SDS011;10281;54.406;18.556;2023-07-24T00:23:44;7.37;;;6.33;;
20245;SDS011;10281;54.406;18.556;2023-07-24T00:26:11;8.40;;;6.57;;
20245;SDS011;10281;54.406;18.556;2023-07-24T00:28:37;8.33;;;6.30;;
20245;SDS011;10281;54.406;18.556;2023-07-24T00:31:04;10.23;;;7.13;;
20245;SDS011;10281;54.406;18.556;2023-07-24T00:33:30;8.93;;;7.13;;
20245;SDS011;10281;54.406;18.556;2023-07-24T00:35:57;10.07;;;7.13;;
20245;SDS011;10281;54.406;18.556;2023-07-24T00:38:24;7.17;;;6.47;;
20245;SDS011;10281;54.406;18.556;2023-07-24T00:40:50;7.40;;;6.60;;
20245;SDS011;10281;54.406;18.556;2023-07-24T00:43:17;8.43;;;6.53;;
20245;SDS011;10281;54.406;18.556;2023-07-24T00:45:44;11.17;;;6.53;;
20245;SDS011;10281;54.406;18.556;2023-07-24T00:48:12;8.60;;;7.07;;
20245;SDS011;10281;54.406;18.556;2023-07-24T00:50:39;10.23;;;6.73;;
20245;SDS011;10281;54.406;18.556;2023-07-24T00:53:10;8.70;;;6.70;;
20245;SDS011;10281;54.406;18.556;2023-07-24T00:55:38;9.73;;;7.03;;
20245;SDS011;10281;54.406;18.556;2023-07-24T00:58:05;7.73;;;6.93;;
20245;SDS011;10281;54.406;18.556;2023-07-24T01:00:32;9.67;;;6.90;;
20245;SDS011;10281;54.406;18.556;2023-07-24T01:02:59;9.00;;;6.53;;
20245;SDS011;10281;54.406;18.556;2023-07-24T01:05:26;8.27;;;6.80;;
20245;SDS011;10281;54.406;18.556;2023-07-24T01:07:53;8.33;;;6.37;;
20245;SDS011;10281;54.406;18.556;2023-07-24T01:10:19;9.37;;;6.80;;
20245;SDS011;10281;54.406;18.556;2023-07-24T01:12:51;7.50;;;6.70;;
20245;SDS011;10281;54.406;18.556;2023-07-24T01:15:29;8.07;;;6.77;;
20245;SDS011;10281;54.406;18.556;2023-07-24T01:18:00;8.53;;;6.80;;
20245;SDS011;10281;54.406;18.556;2023-07-24T01:20:29;10.40;;;7.07;;
20245;SDS011;10281;54.406;18.556;2023-07-24T01:23:04;8.23;;;6.90;;
20245;SDS011;10281;54.406;18.556;2023-07-24T01:25:32;8.60;;;6.43;;
20245;SDS011;10281;54.406;18.556;2023-07-24T01:28:01;9.07;;;6.97;;
20245;SDS011;10281;54.406;18.556;2023-07-24T01:30:30;10.30;;;7.23;;
20245;SDS011;10281;54.406;18.556;2023-07-24T01:32:56;8.67;;;6.87;;
20245;SDS011;10281;54.406;18.556;2023-07-24T01:35:23;9.73;;;6.83;;
20245;SDS011;10281;54.406;18.556;2023-07-24T01:37:50;8.27;;;6.73;;
20245;SDS011;10281;54.406;18.556;2023-07-24T01:40:17;9.50;;;7.17;;
20245;SDS011;10281;54.406;18.556;2023-07-24T01:42:46;8.70;;;6.87;;
20245;SDS011;10281;54.406;18.556;2023-07-24T01:45:13;9.23;;;6.77;;
20245;SDS011;10281;54.406;18.556;2023-07-24T01:47:40;10.27;;;7.03;;
20245;SDS011;10281;54.406;18.556;2023-07-24T01:50:07;8.07;;;6.93;;
20245;SDS011;10281;54.406;18.556;2023-07-24T01:52:34;9.23;;;7.10;;
20245;SDS011;10281;54.406;18.556;2023-07-24T01:55:00;7.70;;;6.63;;
20245;SDS011;10281;54.406;18.556;2023-07-24T01:57:27;9.77;;;7.17;;
20245;SDS011;10281;54.406;18.556;2023-07-24T01:59:54;8.57;;;7.30;;
20245;SDS011;10281;54.406;18.556;2023-07-24T02:02:20;9.77;;;6.50;;
20245;SDS011;10281;54.406;18.556;2023-07-24T02:04:47;11.17;;;7.23;;
20245;SDS011;10281;54.406;18.556;2023-07-24T02:07:13;9.17;;;7.20;;
20245;SDS011;10281;54.406;18.556;2023-07-24T02:09:40;12.00;;;7.20;;
20245;SDS011;10281;54.406;18.556;2023-07-24T02:12:06;7.40;;;6.60;;
20245;SDS011;10281;54.406;18.556;2023-07-24T02:14:33;7.93;;;7.10;;
20245;SDS011;10281;54.406;18.556;2023-07-24T02:17:00;7.60;;;6.43;;
20245;SDS011;10281;54.406;18.556;2023-07-24T02:19:26;8.33;;;7.03;;
20245;SDS011;10281;54.406;18.556;2023-07-24T02:21:53;8.70;;;7.03;;
20245;SDS011;10281;54.406;18.556;2023-07-24T02:24:19;9.20;;;7.47;;
20245;SDS011;10281;54.406;18.556;2023-07-24T02:26:46;9.00;;;7.10;;
20245;SDS011;10281;54.406;18.556;2023-07-24T02:29:12;9.17;;;6.77;;
20245;SDS011;10281;54.406;18.556;2023-07-24T02:31:39;8.63;;;7.23;;
20245;SDS011;10281;54.406;18.556;2023-07-24T02:34:06;8.60;;;7.10;;
20245;SDS011;10281;54.406;18.556;2023-07-24T02:36:32;10.17;;;6.73;;
20245;SDS011;10281;54.406;18.556;2023-07-24T02:38:59;9.30;;;7.10;;
20245;SDS011;10281;54.406;18.556;2023-07-24T02:41:25;9.80;;;7.20;;
20245;SDS011;10281;54.406;18.556;2023-07-24T02:43:52;13.20;;;7.60;;
20245;SDS011;10281;54.406;18.556;2023-07-24T02:46:19;13.13;;;7.63;;
20245;SDS011;10281;54.406;18.556;2023-07-24T02:48:45;11.60;;;7.57;;
20245;SDS011;10281;54.406;18.556;2023-07-24T02:51:12;12.90;;;8.20;;
20245;SDS011;10281;54.406;18.556;2023-07-24T02:53:39;9.33;;;7.80;;
20245;SDS011;10281;54.406;18.556;2023-07-24T02:56:06;9.87;;;7.73;;
20245;SDS011;10281;54.406;18.556;2023-07-24T02:58:32;11.07;;;7.90;;
20245;SDS011;10281;54.406;18.556;2023-07-24T03:01:02;9.90;;;7.97;;
20245;SDS011;10281;54.406;18.556;2023-07-24T03:03:32;8.83;;;7.17;;
20245;SDS011;10281;54.406;18.556;2023-07-24T03:05:59;9.43;;;7.43;;
20245;SDS011;10281;54.406;18.556;2023-07-24T03:08:26;10.23;;;7.70;;
20245;SDS011;10281;54.406;18.556;2023-07-24T03:10:52;9.93;;;7.67;;
20245;SDS011;10281;54.406;18.556;2023-07-24T03:13:19;10.23;;;7.67;;
20245;SDS011;10281;54.406;18.556;2023-07-24T03:15:51;8.90;;;7.23;;
20245;SDS011;10281;54.406;18.556;2023-07-24T03:18:19;10.17;;;7.73;;
20245;SDS011;10281;54.406;18.556;2023-07-24T03:20:46;10.73;;;7.80;;
20245;SDS011;10281;54.406;18.556;2023-07-24T03:23:13;10.10;;;7.43;;
20245;SDS011;10281;54.406;18.556;2023-07-24T03:25:39;9.97;;;7.43;;
20245;SDS011;10281;54.406;18.556;2023-07-24T03:28:06;8.50;;;7.60;;
20245;SDS011;10281;54.406;18.556;2023-07-24T03:30:33;10.00;;;7.80;;
20245;SDS011;10281;54.406;18.556;2023-07-24T03:33:00;9.17;;;8.20;;
20245;SDS011;10281;54.406;18.556;2023-07-24T03:35:28;10.97;;;7.03;;
20245;SDS011;10281;54.406;18.556;2023-07-24T03:37:54;12.37;;;7.47;;
20245;SDS011;10281;54.406;18.556;2023-07-24T03:40:21;9.67;;;7.17;;
20245;SDS011;10281;54.406;18.556;2023-07-24T03:42:47;9.20;;;8.23;;
20245;SDS011;10281;54.406;18.556;2023-07-24T03:45:14;10.00;;;8.27;;
20245;SDS011;10281;54.406;18.556;2023-07-24T03:47:41;9.17;;;7.57;;
20245;SDS011;10281;54.406;18.556;2023-07-24T03:50:08;9.33;;;7.17;;
20245;SDS011;10281;54.406;18.556;2023-07-24T03:52:35;9.23;;;7.20;;
20245;SDS011;10281;54.406;18.556;2023-07-24T03:55:01;8.37;;;7.47;;
20245;SDS011;10281;54.406;18.556;2023-07-24T03:57:29;9.73;;;8.57;;
20245;SDS011;10281;54.406;18.556;2023-07-24T03:59:55;9.87;;;8.43;;
20245;SDS011;10281;54.406;18.556;2023-07-24T04:02:22;8.63;;;7.57;;
20245;SDS011;10281;54.406;18.556;2023-07-24T04:04:49;11.23;;;7.60;;
20245;SDS011;10281;54.406;18.556;2023-07-24T04:07:16;11.03;;;7.37;;
20245;SDS011;10281;54.406;18.556;2023-07-24T04:09:43;10.93;;;7.70;;
20245;SDS011;10281;54.406;18.556;2023-07-24T04:12:09;10.37;;;7.03;;
20245;SDS011;10281;54.406;18.556;2023-07-24T04:14:36;9.17;;;7.80;;
20245;SDS011;10281;54.406;18.556;2023-07-24T04:17:03;10.53;;;7.77;;
20245;SDS011;10281;54.406;18.556;2023-07-24T04:19:30;9.13;;;7.43;;
20245;SDS011;10281;54.406;18.556;2023-07-24T04:21:57;8.50;;;7.57;;
20245;SDS011;10281;54.406;18.556;2023-07-24T04:24:23;8.73;;;7.33;;
20245;SDS011;10281;54.406;18.556;2023-07-24T04:26:50;10.00;;;7.30;;
20245;SDS011;10281;54.406;18.556;2023-07-24T04:29:16;9.00;;;7.70;;
20245;SDS011;10281;54.406;18.556;2023-07-24T04:31:43;10.13;;;7.93;;
20245;SDS011;10281;54.406;18.556;2023-07-24T04:34:10;8.60;;;7.03;;
20245;SDS011;10281;54.406;18.556;2023-07-24T04:36:36;7.57;;;6.80;;
20245;SDS011;10281;54.406;18.556;2023-07-24T04:39:03;8.30;;;7.37;;
20245;SDS011;10281;54.406;18.556;2023-07-24T04:41:29;8.73;;;6.90;;
20245;SDS011;10281;54.406;18.556;2023-07-24T04:43:56;9.53;;;7.23;;
20245;SDS011;10281;54.406;18.556;2023-07-24T04:46:22;8.20;;;7.30;;
20245;SDS011;10281;54.406;18.556;2023-07-24T04:48:49;8.47;;;7.60;;
20245;SDS011;10281;54.406;18.556;2023-07-24T04:51:16;7.90;;;6.80;;
20245;SDS011;10281;54.406;18.556;2023-07-24T04:53:44;11.27;;;7.13;;
20245;SDS011;10281;54.406;18.556;2023-07-24T04:56:11;7.20;;;6.13;;
20245;SDS011;10281;54.406;18.556;2023-07-24T04:58:37;7.30;;;6.20;;
20245;SDS011;10281;54.406;18.556;2023-07-24T05:01:04;6.60;;;5.90;;
20245;SDS011;10281;54.406;18.556;2023-07-24T05:03:31;6.93;;;6.23;;
20245;SDS011;10281;54.406;18.556;2023-07-24T05:05:58;8.43;;;6.40;;
20245;SDS011;10281;54.406;18.556;2023-07-24T05:08:25;9.40;;;6.37;;
20245;SDS011;10281;54.406;18.556;2023-07-24T05:10:54;5.87;;;5.27;;
20245;SDS011;10281;54.406;18.556;2023-07-24T05:13:22;7.13;;;5.90;;
20245;SDS011;10281;54.406;18.556;2023-07-24T05:15:48;7.53;;;5.93;;
20245;SDS011;10281;54.406;18.556;2023-07-24T05:18:15;7.27;;;5.70;;
20245;SDS011;10281;54.406;18.556;2023-07-24T05:20:44;7.40;;;5.50;;
20245;SDS011;10281;54.406;18.556;2023-07-24T05:23:13;6.40;;;5.40;;
20245;SDS011;10281;54.406;18.556;2023-07-24T05:25:40;7.03;;;5.73;;
20245;SDS011;10281;54.406;18.556;2023-07-24T05:28:07;6.27;;;5.60;;
20245;SDS011;10281;54.406;18.556;2023-07-24T05:30:33;7.87;;;5.70;;
20245;SDS011;10281;54.406;18.556;2023-07-24T05:33:00;5.97;;;5.37;;
20245;SDS011;10281;54.406;18.556;2023-07-24T05:35:27;6.90;;;5.37;;
20245;SDS011;10281;54.406;18.556;2023-07-24T05:37:54;7.10;;;5.20;;
20245;SDS011;10281;54.406;18.556;2023-07-24T05:40:20;6.93;;;5.40;;
20245;SDS011;10281;54.406;18.556;2023-07-24T05:42:47;6.10;;;5.50;;
20245;SDS011;10281;54.406;18.556;2023-07-24T05:45:13;7.60;;;5.63;;
20245;SDS011;10281;54.406;18.556;2023-07-24T05:47:41;6.93;;;5.30;;
20245;SDS011;10281;54.406;18.556;2023-07-24T05:50:07;6.30;;;5.03;;
20245;SDS011;10281;54.406;18.556;2023-07-24T05:52:34;8.60;;;7.70;;
20245;SDS011;10281;54.406;18.556;2023-07-24T05:55:01;7.17;;;5.40;;
20245;SDS011;10281;54.406;18.556;2023-07-24T05:57:28;6.07;;;5.47;;
20245;SDS011;10281;54.406;18.556;2023-07-24T05:59:55;8.13;;;5.10;;
20245;SDS011;10281;54.406;18.556;2023-07-24T06:02:21;5.07;;;4.60;;
20245;SDS011;10281;54.406;18.556;2023-07-24T06:04:48;5.70;;;4.80;;
20245;SDS011;10281;54.406;18.556;2023-07-24T06:07:15;5.23;;;4.70;;
20245;SDS011;10281;54.406;18.556;2023-07-24T06:09:41;6.03;;;4.47;;
20245;SDS011;10281;54.406;18.556;2023-07-24T06:12:08;5.90;;;4.70;;
20245;SDS011;10281;54.406;18.556;2023-07-24T06:14:34;5.23;;;4.67;;
20245;SDS011;10281;54.406;18.556;2023-07-24T06:17:01;6.10;;;4.20;;
20245;SDS011;10281;54.406;18.556;2023-07-24T06:19:28;5.20;;;4.57;;
20245;SDS011;10281;54.406;18.556;2023-07-24T06:21:54;6.00;;;4.60;;
20245;SDS011;10281;54.406;18.556;2023-07-24T06:24:21;4.97;;;4.23;;
20245;SDS011;10281;54.406;18.556;2023-07-24T06:26:49;4.40;;;3.67;;
20245;SDS011;10281;54.406;18.556;2023-07-24T06:29:16;5.07;;;3.90;;
20245;SDS011;10281;54.406;18.556;2023-07-24T06:31:42;4.80;;;4.30;;
20245;SDS011;10281;54.406;18.556;2023-07-24T06:34:09;4.77;;;4.23;;
20245;SDS011;10281;54.406;18.556;2023-07-24T06:36:36;5.17;;;4.23;;
20245;SDS011;10281;54.406;18.556;2023-07-24T06:39:02;6.03;;;4.00;;
20245;SDS011;10281;54.406;18.556;2023-07-24T06:41:29;5.80;;;4.20;;
20245;SDS011;10281;54.406;18.556;2023-07-24T06:43:56;3.97;;;3.43;;
20245;SDS011;10281;54.406;18.556;2023-07-24T06:46:22;7.50;;;4.80;;
20245;SDS011;10281;54.406;18.556;2023-07-24T06:48:49;4.43;;;4.00;;
20245;SDS011;10281;54.406;18.556;2023-07-24T06:51:15;4.63;;;3.87;;
20245;SDS011;10281;54.406;18.556;2023-07-24T06:53:42;4.37;;;3.97;;
20245;SDS011;10281;54.406;18.556;2023-07-24T06:56:08;7.13;;;3.90;;
20245;SDS011;10281;54.406;18.556;2023-07-24T06:58:35;6.60;;;4.23;;
20245;SDS011;10281;54.406;18.556;2023-07-24T07:01:05;4.80;;;4.37;;
20245;SDS011;10281;54.406;18.556;2023-07-24T07:03:32;4.33;;;3.93;;
20245;SDS011;10281;54.406;18.556;2023-07-24T07:06:01;4.43;;;4.00;;
20245;SDS011;10281;54.406;18.556;2023-07-24T07:08:29;6.10;;;3.83;;
20245;SDS011;10281;54.406;18.556;2023-07-24T07:10:56;6.43;;;3.97;;
20245;SDS011;10281;54.406;18.556;2023-07-24T07:13:24;4.10;;;3.70;;
20245;SDS011;10281;54.406;18.556;2023-07-24T07:15:50;6.30;;;3.60;;
20245;SDS011;10281;54.406;18.556;2023-07-24T07:18:17;4.47;;;3.50;;
20245;SDS011;10281;54.406;18.556;2023-07-24T07:20:45;4.83;;;4.10;;
20245;SDS011;10281;54.406;18.556;2023-07-24T07:23:12;4.07;;;3.50;;
20245;SDS011;10281;54.406;18.556;2023-07-24T07:25:39;4.77;;;3.53;;
20245;SDS011;10281;54.406;18.556;2023-07-24T07:28:06;4.63;;;3.67;;
20245;SDS011;10281;54.406;18.556;2023-07-24T07:30:32;5.07;;;3.83;;
20245;SDS011;10281;54.406;18.556;2023-07-24T07:32:59;6.17;;;3.83;;
20245;SDS011;10281;54.406;18.556;2023-07-24T07:35:26;4.60;;;4.10;;
20245;SDS011;10281;54.406;18.556;2023-07-24T07:37:52;4.93;;;3.80;;
20245;SDS011;10281;54.406;18.556;2023-07-24T07:40:19;3.90;;;3.47;;
20245;SDS011;10281;54.406;18.556;2023-07-24T07:42:46;4.10;;;3.70;;
20245;SDS011;10281;54.406;18.556;2023-07-24T07:45:12;4.23;;;3.80;;
20245;SDS011;10281;54.406;18.556;2023-07-24T07:47:39;5.23;;;3.73;;
20245;SDS011;10281;54.406;18.556;2023-07-24T07:50:06;6.00;;;3.47;;
20245;SDS011;10281;54.406;18.556;2023-07-24T07:52:33;4.43;;;3.47;;
20245;SDS011;10281;54.406;18.556;2023-07-24T07:54:59;4.10;;;3.67;;
20245;SDS011;10281;54.406;18.556;2023-07-24T07:57:26;6.50;;;3.60;;
20245;SDS011;10281;54.406;18.556;2023-07-24T07:59:53;3.60;;;3.30;;
20245;SDS011;10281;54.406;18.556;2023-07-24T08:02:19;4.07;;;3.13;;
20245;SDS011;10281;54.406;18.556;2023-07-24T08:04:46;3.83;;;3.30;;
20245;SDS011;10281;54.406;18.556;2023-07-24T08:07:12;3.67;;;3.20;;
20245;SDS011;10281;54.406;18.556;2023-07-24T08:09:39;7.47;;;4.40;;
20245;SDS011;10281;54.406;18.556;2023-07-24T08:12:06;3.57;;;3.27;;
20245;SDS011;10281;54.406;18.556;2023-07-24T08:14:33;3.87;;;3.40;;
20245;SDS011;10281;54.406;18.556;2023-07-24T08:17:00;4.73;;;3.50;;
20245;SDS011;10281;54.406;18.556;2023-07-24T08:19:28;5.60;;;3.83;;
20245;SDS011;10281;54.406;18.556;2023-07-24T08:21:55;4.47;;;3.40;;
20245;SDS011;10281;54.406;18.556;2023-07-24T08:24:22;4.70;;;3.87;;
20245;SDS011;10281;54.406;18.556;2023-07-24T08:26:49;4.07;;;3.60;;
20245;SDS011;10281;54.406;18.556;2023-07-24T08:29:15;4.27;;;3.33;;
20245;SDS011;10281;54.406;18.556;2023-07-24T08:31:42;4.93;;;3.50;;
20245;SDS011;10281;54.406;18.556;2023-07-24T08:34:08;5.73;;;3.73;;
20245;SDS011;10281;54.406;18.556;2023-07-24T08:36:35;4.07;;;3.60;;
20245;SDS011;10281;54.406;18.556;2023-07-24T08:39:03;4.00;;;3.60;;
20245;SDS011;10281;54.406;18.556;2023-07-24T08:41:29;5.17;;;3.70;;
20245;SDS011;10281;54.406;18.556;2023-07-24T08:43:58;3.53;;;3.23;;
20245;SDS011;10281;54.406;18.556;2023-07-24T08:46:25;3.60;;;3.23;;
20245;SDS011;10281;54.406;18.556;2023-07-24T08:48:53;4.97;;;3.57;;
20245;SDS011;10281;54.406;18.556;2023-07-24T08:51:21;4.63;;;3.70;;
20245;SDS011;10281;54.406;18.556;2023-07-24T08:53:49;6.43;;;5.00;;
20245;SDS011;10281;54.406;18.556;2023-07-24T08:56:17;10.27;;;5.63;;
20245;SDS011;10281;54.406;18.556;2023-07-24T08:58:43;5.03;;;4.07;;
20245;SDS011;10281;54.406;18.556;2023-07-24T09:01:10;4.07;;;3.50;;
20245;SDS011;10281;54.406;18.556;2023-07-24T09:03:37;9.87;;;7.63;;
20245;SDS011;10281;54.406;18.556;2023-07-24T09:06:04;4.80;;;3.23;;
20245;SDS011;10281;54.406;18.556;2023-07-24T09:08:34;4.10;;;3.33;;
20245;SDS011;10281;54.406;18.556;2023-07-24T09:11:04;5.33;;;4.77;;
20245;SDS011;10281;54.406;18.556;2023-07-24T09:13:31;5.73;;;3.80;;
20245;SDS011;10281;54.406;18.556;2023-07-24T09:15:59;4.27;;;3.37;;
20245;SDS011;10281;54.406;18.556;2023-07-24T09:18:26;5.93;;;4.10;;
20245;SDS011;10281;54.406;18.556;2023-07-24T09:20:53;7.07;;;6.33;;
20245;SDS011;10281;54.406;18.556;2023-07-24T09:23:25;3.37;;;3.03;;
20245;SDS011;10281;54.406;18.556;2023-07-24T09:25:53;3.60;;;3.30;;
20245;SDS011;10281;54.406;18.556;2023-07-24T09:28:20;3.10;;;2.80;;
20245;SDS011;10281;54.406;18.556;2023-07-24T09:30:51;6.77;;;3.23;;
20245;SDS011;10281;54.406;18.556;2023-07-24T09:33:22;5.17;;;3.43;;
20245;SDS011;10281;54.406;18.556;2023-07-24T09:38:24;3.83;;;3.30;;
20245;SDS011;10281;54.406;18.556;2023-07-24T09:40:52;3.60;;;2.90;;
20245;SDS011;10281;54.406;18.556;2023-07-24T09:43:20;5.00;;;2.93;;
20245;SDS011;10281;54.406;18.556;2023-07-24T09:45:48;5.27;;;3.03;;
20245;SDS011;10281;54.406;18.556;2023-07-24T09:48:16;3.30;;;3.00;;
20245;SDS011;10281;54.406;18.556;2023-07-24T09:50:45;4.80;;;3.50;;
20245;SDS011;10281;54.406;18.556;2023-07-24T09:53:31;3.73;;;3.43;;
20245;SDS011;10281;54.406;18.556;2023-07-24T09:55:58;6.93;;;3.37;;
20245;SDS011;10281;54.406;18.556;2023-07-24T09:58:27;5.77;;;3.23;;
20245;SDS011;10281;54.406;18.556;2023-07-24T10:00:55;3.37;;;3.07;;
20245;SDS011;10281;54.406;18.556;2023-07-24T10:03:23;4.70;;;3.40;;
20245;SDS011;10281;54.406;18.556;2023-07-24T10:05:52;4.10;;;3.30;;
20245;SDS011;10281;54.406;18.556;2023-07-24T10:08:20;3.63;;;3.20;;
20245;SDS011;10281;54.406;18.556;2023-07-24T10:10:46;3.57;;;3.10;;
20245;SDS011;10281;54.406;18.556;2023-07-24T10:13:16;3.40;;;3.10;;
20245;SDS011;10281;54.406;18.556;2023-07-24T10:15:44;4.10;;;3.70;;
20245;SDS011;10281;54.406;18.556;2023-07-24T10:18:14;7.00;;;3.50;;
20245;SDS011;10281;54.406;18.556;2023-07-24T10:20:43;6.87;;;3.30;;
20245;SDS011;10281;54.406;18.556;2023-07-24T10:23:11;3.10;;;2.80;;
20245;SDS011;10281;54.406;18.556;2023-07-24T10:25:41;8.53;;;3.80;;
20245;SDS011;10281;54.406;18.556;2023-07-24T10:28:11;3.80;;;3.33;;
20245;SDS011;10281;54.406;18.556;2023-07-24T10:30:38;3.90;;;3.30;;
20245;SDS011;10281;54.406;18.556;2023-07-24T10:33:08;4.10;;;3.47;;
20245;SDS011;10281;54.406;18.556;2023-07-24T10:35:41;3.57;;;3.20;;
20245;SDS011;10281;54.406;18.556;2023-07-24T10:38:10;4.33;;;3.57;;
20245;SDS011;10281;54.406;18.556;2023-07-24T10:40:37;5.83;;;3.50;;
20245;SDS011;10281;54.406;18.556;2023-07-24T10:43:05;4.93;;;3.20;;
20245;SDS011;10281;54.406;18.556;2023-07-24T10:45:40;4.47;;;2.90;;
20245;SDS011;10281;54.406;18.556;2023-07-24T10:48:08;5.93;;;3.20;;
20245;SDS011;10281;54.406;18.556;2023-07-24T10:50:37;3.53;;;3.07;;
20245;SDS011;10281;54.406;18.556;2023-07-24T10:53:06;4.43;;;3.03;;
20245;SDS011;10281;54.406;18.556;2023-07-24T10:55:33;3.27;;;2.97;;
20245;SDS011;10281;54.406;18.556;2023-07-24T10:58:00;4.97;;;3.40;;
20245;SDS011;10281;54.406;18.556;2023-07-24T11:00:27;4.37;;;3.20;;
20245;SDS011;10281;54.406;18.556;2023-07-24T11:02:54;4.10;;;2.97;;
20245;SDS011;10281;54.406;18.556;2023-07-24T11:05:21;3.37;;;3.07;;
20245;SDS011;10281;54.406;18.556;2023-07-24T11:07:49;3.40;;;3.10;;
20245;SDS011;10281;54.406;18.556;2023-07-24T11:10:17;3.93;;;3.20;;
20245;SDS011;10281;54.406;18.556;2023-07-24T11:12:45;3.20;;;2.90;;
20245;SDS011;10281;54.406;18.556;2023-07-24T11:15:12;3.70;;;3.10;;
20245;SDS011;10281;54.406;18.556;2023-07-24T11:17:40;4.40;;;3.27;;
20245;SDS011;10281;54.406;18.556;2023-07-24T11:20:10;3.67;;;3.07;;
20245;SDS011;10281;54.406;18.556;2023-07-24T11:22:40;5.43;;;3.13;;
20245;SDS011;10281;54.406;18.556;2023-07-24T11:25:09;4.03;;;3.37;;
20245;SDS011;10281;54.406;18.556;2023-07-24T11:27:38;6.10;;;3.10;;
20245;SDS011;10281;54.406;18.556;2023-07-24T11:30:08;3.83;;;3.43;;
20245;SDS011;10281;54.406;18.556;2023-07-24T11:32:35;4.07;;;2.97;;
20245;SDS011;10281;54.406;18.556;2023-07-24T11:35:04;5.50;;;3.33;;
20245;SDS011;10281;54.406;18.556;2023-07-24T11:37:31;4.93;;;2.97;;
20245;SDS011;10281;54.406;18.556;2023-07-24T11:39:58;3.80;;;2.80;;
20245;SDS011;10281;54.406;18.556;2023-07-24T11:42:43;3.20;;;2.90;;
20245;SDS011;10281;54.406;18.556;2023-07-24T11:45:10;4.33;;;3.13;;
20245;SDS011;10281;54.406;18.556;2023-07-24T11:47:42;3.83;;;3.10;;
20245;SDS011;10281;54.406;18.556;2023-07-24T11:50:11;2.83;;;2.63;;
20245;SDS011;10281;54.406;18.556;2023-07-24T11:52:40;3.60;;;3.13;;
20245;SDS011;10281;54.406;18.556;2023-07-24T11:55:11;3.50;;;3.10;;
20245;SDS011;10281;54.406;18.556;2023-07-24T11:57:39;4.00;;;3.10;;
20245;SDS011;10281;54.406;18.556;2023-07-24T12:00:16;6.07;;;3.23;;
20245;SDS011;10281;54.406;18.556;2023-07-24T12:02:46;4.27;;;3.43;;
20245;SDS011;10281;54.406;18.556;2023-07-24T12:05:12;3.90;;;3.03;;
20245;SDS011;10281;54.406;18.556;2023-07-24T12:07:39;3.53;;;3.00;;
20245;SDS011;10281;54.406;18.556;2023-07-24T12:10:09;4.13;;;3.03;;
20245;SDS011;10281;54.406;18.556;2023-07-24T12:12:45;3.50;;;3.03;;
20245;SDS011;10281;54.406;18.556;2023-07-24T12:15:13;3.27;;;2.97;;
20245;SDS011;10281;54.406;18.556;2023-07-24T12:17:40;3.73;;;3.33;;
20245;SDS011;10281;54.406;18.556;2023-07-24T12:20:08;3.70;;;3.30;;
20245;SDS011;10281;54.406;18.556;2023-07-24T12:22:36;4.10;;;3.27;;
20245;SDS011;10281;54.406;18.556;2023-07-24T12:25:04;3.27;;;2.97;;
20245;SDS011;10281;54.406;18.556;2023-07-24T12:27:32;8.10;;;3.47;;
20245;SDS011;10281;54.406;18.556;2023-07-24T12:29:59;4.67;;;3.70;;
20245;SDS011;10281;54.406;18.556;2023-07-24T12:32:26;5.47;;;3.47;;
20245;SDS011;10281;54.406;18.556;2023-07-24T12:34:53;4.27;;;3.20;;
20245;SDS011;10281;54.406;18.556;2023-07-24T12:37:20;3.10;;;2.80;;
20245;SDS011;10281;54.406;18.556;2023-07-24T12:39:47;4.27;;;3.47;;
20245;SDS011;10281;54.406;18.556;2023-07-24T12:42:14;3.60;;;2.70;;
20245;SDS011;10281;54.406;18.556;2023-07-24T12:44:41;4.43;;;3.13;;
20245;SDS011;10281;54.406;18.556;2023-07-24T12:47:10;3.40;;;3.10;;
20245;SDS011;10281;54.406;18.556;2023-07-24T12:49:37;4.63;;;3.07;;
20245;SDS011;10281;54.406;18.556;2023-07-24T12:52:04;5.00;;;3.33;;
20245;SDS011;10281;54.406;18.556;2023-07-24T12:54:31;4.20;;;2.90;;
20245;SDS011;10281;54.406;18.556;2023-07-24T12:56:58;3.17;;;2.87;;
20245;SDS011;10281;54.406;18.556;2023-07-24T12:59:25;3.47;;;3.17;;
20245;SDS011;10281;54.406;18.556;2023-07-24T13:01:51;3.00;;;2.80;;
20245;SDS011;10281;54.406;18.556;2023-07-24T13:04:19;3.10;;;2.80;;
20245;SDS011;10281;54.406;18.556;2023-07-24T13:06:46;2.97;;;2.70;;
20245;SDS011;10281;54.406;18.556;2023-07-24T13:09:13;3.13;;;2.83;;
20245;SDS011;10281;54.406;18.556;2023-07-24T13:11:39;3.67;;;2.77;;
20245;SDS011;10281;54.406;18.556;2023-07-24T13:14:06;4.37;;;2.60;;
20245;SDS011;10281;54.406;18.556;2023-07-24T13:16:32;3.13;;;2.53;;
20245;SDS011;10281;54.406;18.556;2023-07-24T13:18:59;4.00;;;2.37;;
20245;SDS011;10281;54.406;18.556;2023-07-24T13:21:26;2.60;;;2.03;;
20245;SDS011;10281;54.406;18.556;2023-07-24T13:23:52;4.60;;;2.33;;
20245;SDS011;10281;54.406;18.556;2023-07-24T13:26:19;2.80;;;2.33;;
20245;SDS011;10281;54.406;18.556;2023-07-24T13:28:45;2.70;;;2.50;;
20245;SDS011;10281;54.406;18.556;2023-07-24T13:31:13;2.67;;;2.47;;
20245;SDS011;10281;54.406;18.556;2023-07-24T13:33:40;5.73;;;2.73;;
20245;SDS011;10281;54.406;18.556;2023-07-24T13:36:07;2.33;;;2.00;;
20245;SDS011;10281;54.406;18.556;2023-07-24T13:38:34;2.47;;;2.27;;
20245;SDS011;10281;54.406;18.556;2023-07-24T13:41:01;2.83;;;2.23;;
20245;SDS011;10281;54.406;18.556;2023-07-24T13:43:30;4.13;;;2.53;;
20245;SDS011;10281;54.406;18.556;2023-07-24T13:45:57;4.63;;;2.40;;
20245;SDS011;10281;54.406;18.556;2023-07-24T13:48:24;3.73;;;2.10;;
20245;SDS011;10281;54.406;18.556;2023-07-24T13:50:53;2.77;;;2.57;;
20245;SDS011;10281;54.406;18.556;2023-07-24T13:53:20;3.20;;;2.30;;
20245;SDS011;10281;54.406;18.556;2023-07-24T13:55:47;3.00;;;2.40;;
20245;SDS011;10281;54.406;18.556;2023-07-24T13:58:14;3.70;;;2.00;;
20245;SDS011;10281;54.406;18.556;2023-07-24T14:00:41;3.67;;;2.37;;
20245;SDS011;10281;54.406;18.556;2023-07-24T14:03:07;3.67;;;2.30;;
20245;SDS011;10281;54.406;18.556;2023-07-24T14:05:34;2.10;;;1.87;;
20245;SDS011;10281;54.406;18.556;2023-07-24T14:08:03;2.70;;;2.50;;
20245;SDS011;10281;54.406;18.556;2023-07-24T14:10:30;2.73;;;2.03;;
20245;SDS011;10281;54.406;18.556;2023-07-24T14:12:57;2.73;;;2.33;;
20245;SDS011;10281;54.406;18.556;2023-07-24T14:15:24;4.73;;;2.57;;
20245;SDS011;10281;54.406;18.556;2023-07-24T14:17:50;3.60;;;2.20;;
20245;SDS011;10281;54.406;18.556;2023-07-24T14:20:17;3.77;;;2.23;;
20245;SDS011;10281;54.406;18.556;2023-07-24T14:22:44;2.70;;;2.47;;
20245;SDS011;10281;54.406;18.556;2023-07-24T14:25:10;2.40;;;2.20;;
20245;SDS011;10281;54.406;18.556;2023-07-24T14:27:37;2.87;;;2.20;;
20245;SDS011;10281;54.406;18.556;2023-07-24T14:30:04;2.70;;;2.50;;
20245;SDS011;10281;54.406;18.556;2023-07-24T14:32:32;2.67;;;2.47;;
20245;SDS011;10281;54.406;18.556;2023-07-24T14:34:58;2.67;;;2.30;;
20245;SDS011;10281;54.406;18.556;2023-07-24T14:37:25;2.60;;;2.17;;